createdAt,value
2019-03-30T00:01:09.791Z,98251.72
2019-03-30T00:03:40.571Z,98253.39
2019-03-30T00:06:11.356Z,98253.02
2019-03-30T00:08:42.085Z,98249.83
2019-03-30T00:11:12.854Z,98242.74
2019-03-30T00:13:43.755Z,98239.97
2019-03-30T00:16:14.513Z,98248.36
2019-03-30T00:18:45.303Z,98238.55
2019-03-30T00:21:16.057Z,98233.81
2019-03-30T00:23:47.207Z,98232.80
2019-03-30T00:26:18.026Z,98226.97
2019-03-30T00:28:48.872Z,98222.15
2019-03-30T00:31:19.721Z,98222.53
2019-03-30T00:33:50.510Z,98220.30
2019-03-30T00:36:21.290Z,98216.78
2019-03-30T00:38:52.079Z,98221.27
2019-03-30T00:41:22.887Z,98221.73
2019-03-30T00:43:53.636Z,98223.88
2019-03-30T00:46:24.392Z,98228.86
2019-03-30T00:48:56.252Z,98227.98
2019-03-30T00:51:27.096Z,98225.63
2019-03-30T00:53:57.912Z,98232.55
2019-03-30T00:56:28.691Z,98226.22
2019-03-30T00:59:00.611Z,98227.98
2019-03-30T01:01:31.358Z,98236.03
2019-03-30T01:04:02.129Z,98236.25
2019-03-30T01:06:32.970Z,98235.70
2019-03-30T01:09:04.401Z,98239.27
2019-03-30T01:11:35.431Z,98236.49
2019-03-30T01:14:06.239Z,98233.48
2019-03-30T01:16:37.116Z,98241.53
2019-03-30T01:19:07.951Z,98236.58
2019-03-30T01:21:38.781Z,98236.95
2019-03-30T01:24:09.501Z,98242.41
2019-03-30T01:26:40.369Z,98234.36
2019-03-30T01:29:11.112Z,98234.69
2019-03-30T01:31:42.922Z,98232.55
2019-03-30T01:34:14.558Z,98234.36
2019-03-30T01:36:45.551Z,98232.14
2019-03-30T01:39:16.274Z,98232.47
2019-03-30T01:41:47.051Z,98226.64
2019-03-30T01:44:17.810Z,98228.44
2019-03-30T01:46:48.678Z,98227.98
2019-03-30T01:49:19.550Z,98227.19
2019-03-30T01:51:50.277Z,98229.41
2019-03-30T01:54:21.134Z,98220.39
2019-03-30T01:56:52.065Z,98218.67
2019-03-30T01:59:22.927Z,98211.46
2019-03-30T02:01:53.810Z,98215.48
2019-03-30T02:04:24.805Z,98214.31
2019-03-30T02:06:55.592Z,98215.48
2019-03-30T02:09:26.328Z,98213.84
2019-03-30T02:11:57.058Z,98210.20
2019-03-30T02:14:27.994Z,98211.96
2019-03-30T02:16:58.800Z,98207.52
2019-03-30T02:19:31.887Z,98211.46
2019-03-30T02:22:02.724Z,98210.62
2019-03-30T02:24:33.687Z,98205.38
2019-03-30T02:27:05.521Z,98206.27
2019-03-30T02:29:36.577Z,98202.78
2019-03-30T02:32:07.567Z,98208.70
2019-03-30T02:34:38.373Z,98205.55
2019-03-30T02:37:09.162Z,98206.02
2019-03-30T02:39:39.961Z,98207.73
2019-03-30T02:42:10.803Z,98195.99
2019-03-30T02:44:41.542Z,98197.08
2019-03-30T02:47:12.340Z,98194.31
2019-03-30T02:49:44.167Z,98198.34
2019-03-30T02:52:15.281Z,98195.99
2019-03-30T02:54:46.274Z,98190.88
2019-03-30T02:57:17.126Z,98188.02
2019-03-30T02:59:47.923Z,98187.23
2019-03-30T03:02:19.910Z,98184.92
2019-03-30T03:04:50.788Z,98178.80
2019-03-30T03:07:21.576Z,98175.23
2019-03-30T03:09:52.307Z,98188.11
2019-03-30T03:12:23.062Z,98182.03
2019-03-30T03:14:54.040Z,98188.24
2019-03-30T03:17:24.791Z,98182.33
2019-03-30T03:19:55.609Z,98181.53
2019-03-30T03:22:26.357Z,98176.03
2019-03-30T03:24:57.136Z,98173.89
2019-03-30T03:27:27.940Z,98175.70
2019-03-30T03:29:58.762Z,98172.69
2019-03-30T03:32:29.549Z,98173.89
2019-03-30T03:35:00.795Z,98173.19
2019-03-30T03:37:44.634Z,98168.99
2019-03-30T03:40:08.016Z,98171.34
2019-03-30T03:42:39.720Z,98181.06
2019-03-30T03:45:10.935Z,98180.69
2019-03-30T03:47:41.660Z,98177.51
2019-03-30T03:50:33.698Z,98182.41
2019-03-30T03:53:05.471Z,98177.67
2019-03-30T03:55:36.631Z,98175.95
2019-03-30T03:58:07.435Z,98177.38
2019-03-30T04:00:38.276Z,98183.20
2019-03-30T04:03:09.545Z,98173.48
2019-03-30T04:05:42.351Z,98173.56
2019-03-30T04:08:14.330Z,98176.58
2019-03-30T04:10:48.166Z,98171.30
2019-03-30T04:13:18.965Z,98175.45
2019-03-30T04:15:49.704Z,98167.54
2019-03-30T04:18:20.579Z,98162.59
2019-03-30T04:20:52.511Z,98169.02
2019-03-30T04:23:23.303Z,98168.63
2019-03-30T04:25:54.128Z,98165.95
2019-03-30T04:28:24.943Z,98164.66
2019-03-30T04:30:55.704Z,98173.50
2019-03-30T04:33:26.527Z,98169.02
2019-03-30T04:35:57.703Z,98167.34
2019-03-30T04:38:28.496Z,98172.25
2019-03-30T04:40:59.264Z,98169.23
2019-03-30T04:43:30.134Z,98169.09
2019-03-30T04:46:01.001Z,98170.52
2019-03-30T04:48:31.868Z,98166.00
2019-03-30T04:51:02.630Z,98168.69
2019-03-30T04:53:33.522Z,98165.63
2019-03-30T04:56:04.331Z,98169.18
2019-03-30T04:58:36.193Z,98167.34
2019-03-30T05:01:06.994Z,98166.09
2019-03-30T05:03:39.571Z,98167.42
2019-03-30T05:06:10.378Z,98162.23
2019-03-30T05:08:41.171Z,98168.39
2019-03-30T05:11:13.624Z,98175.64
2019-03-30T05:13:44.417Z,98172.00
2019-03-30T05:16:15.197Z,98174.59
2019-03-30T05:18:45.991Z,98167.09
2019-03-30T05:21:16.791Z,98171.53
2019-03-30T05:23:49.067Z,98174.22
2019-03-30T05:26:19.922Z,98179.96
2019-03-30T05:28:50.716Z,98173.50
2019-03-30T05:31:22.039Z,98179.72
2019-03-30T05:33:52.851Z,98175.23
2019-03-30T05:36:23.618Z,98171.07
2019-03-30T05:38:54.452Z,98177.78
2019-03-30T05:41:25.281Z,98176.05
2019-03-30T05:43:56.226Z,98185.45
2019-03-30T05:46:27.177Z,98186.08
2019-03-30T05:48:58.072Z,98187.25
2019-03-30T05:51:28.846Z,98185.53
2019-03-30T05:53:59.638Z,98186.78
2019-03-30T05:56:30.482Z,98188.08
2019-03-30T05:59:01.305Z,98184.05
2019-03-30T06:01:32.092Z,98182.83
2019-03-30T06:04:02.938Z,98181.40
2019-03-30T06:06:33.766Z,98183.45
2019-03-30T06:09:05.225Z,98182.57
2019-03-30T06:11:36.030Z,98187.14
2019-03-30T06:14:06.824Z,98181.53
2019-03-30T06:16:38.621Z,98189.94
2019-03-30T06:19:09.475Z,98186.87
2019-03-30T06:21:40.236Z,98181.88
2019-03-30T06:24:11.002Z,98177.34
2019-03-30T06:26:41.792Z,98182.08
2019-03-30T06:29:12.634Z,98177.59
2019-03-30T06:31:46.607Z,98181.70
2019-03-30T06:34:15.824Z,98182.16
2019-03-30T06:36:46.624Z,98174.44
2019-03-30T06:39:17.461Z,98175.06
2019-03-30T06:41:48.351Z,98172.25
2019-03-30T06:44:19.092Z,98168.27
2019-03-30T06:46:49.888Z,98168.82
2019-03-30T06:49:20.665Z,98165.84
2019-03-30T06:51:51.424Z,98159.14
2019-03-30T06:54:22.199Z,98158.67
2019-03-30T06:56:53.004Z,98152.02
2019-03-30T06:59:23.747Z,98149.66
2019-03-30T07:01:54.604Z,98145.09
2019-03-30T07:04:25.367Z,98146.98
2019-03-30T07:06:56.174Z,98151.33
2019-03-30T07:09:26.986Z,98141.06
2019-03-30T07:11:58.449Z,98141.85
2019-03-30T07:14:29.795Z,98147.59
2019-03-30T07:17:01.836Z,98144.07
2019-03-30T07:19:33.793Z,98138.16
2019-03-30T07:22:04.691Z,98135.94
2019-03-30T07:24:35.460Z,98135.61
2019-03-30T07:27:06.195Z,98132.29
2019-03-30T07:29:36.996Z,98128.20
2019-03-30T07:32:07.850Z,98131.50
2019-03-30T07:34:41.706Z,98124.65
2019-03-30T07:37:12.493Z,98123.39
2019-03-30T07:39:43.305Z,98122.29
2019-03-30T07:42:14.124Z,98119.44
2019-03-30T07:44:44.916Z,98118.17
2019-03-30T07:47:15.675Z,98113.83
2019-03-30T07:49:46.500Z,98108.88
2019-03-30T07:52:17.319Z,98110.22
2019-03-30T07:54:48.140Z,98105.22
2019-03-30T07:57:18.907Z,98099.48
2019-03-30T07:59:49.780Z,98100.18
2019-03-30T08:02:20.567Z,98097.50
2019-03-30T08:04:51.339Z,98091.16
2019-03-30T08:07:22.141Z,98095.05
2019-03-30T08:09:52.884Z,98090.14
2019-03-30T08:12:24.819Z,98089.68
2019-03-30T08:14:55.638Z,98092.05
2019-03-30T08:17:26.383Z,98093.63
2019-03-30T08:19:57.308Z,98093.00
2019-03-30T08:22:28.117Z,98091.34
2019-03-30T08:24:58.854Z,98088.02
2019-03-30T08:27:29.648Z,98084.22
2019-03-30T08:30:00.492Z,98084.78
2019-03-30T08:32:31.302Z,98081.48
2019-03-30T08:35:02.141Z,98076.11
2019-03-30T08:37:33.278Z,98075.70
2019-03-30T08:40:04.711Z,98070.19
2019-03-30T08:42:35.467Z,98072.37
2019-03-30T08:45:07.407Z,98073.48
2019-03-30T08:47:38.302Z,98066.39
2019-03-30T08:50:09.354Z,98062.19
2019-03-30T08:52:42.547Z,98063.63
2019-03-30T08:55:13.318Z,98051.08
2019-03-30T08:57:44.053Z,98056.13
2019-03-30T09:00:19.668Z,98050.29
2019-03-30T09:02:50.418Z,98050.75
2019-03-30T09:05:21.307Z,98045.39
2019-03-30T09:07:52.192Z,98047.14
2019-03-30T09:10:22.945Z,98049.41
2019-03-30T09:12:53.777Z,98037.34
2019-03-30T09:15:24.598Z,98039.93
2019-03-30T09:17:55.478Z,98033.63
2019-03-30T09:20:28.184Z,98035.91
2019-03-30T09:22:59.092Z,98031.04
2019-03-30T09:25:29.898Z,98024.70
2019-03-30T09:28:00.753Z,98022.89
2019-03-30T09:30:31.541Z,98019.89
2019-03-30T09:33:02.464Z,98021.14
2019-03-30T09:35:33.275Z,98018.00
2019-03-30T09:38:04.107Z,98017.06
2019-03-30T09:40:35.000Z,98020.59
2019-03-30T09:43:05.829Z,98028.09
2019-03-30T09:45:37.014Z,98028.03
2019-03-30T09:48:07.866Z,98024.47
2019-03-30T09:50:38.715Z,98015.08
2019-03-30T09:53:09.574Z,98013.18
2019-03-30T09:55:40.403Z,98011.43
2019-03-30T09:58:11.272Z,98011.14
2019-03-30T10:00:42.133Z,98008.05
2019-03-30T10:03:12.990Z,98009.39
2019-03-30T10:05:43.780Z,98003.37
2019-03-30T10:08:14.643Z,98001.48
2019-03-30T10:10:45.499Z,97998.80
2019-03-30T10:13:16.481Z,97990.73
2019-03-30T10:15:47.578Z,97985.69
2019-03-30T10:18:18.396Z,97976.61
2019-03-30T10:20:49.188Z,97978.66
2019-03-30T10:23:20.566Z,97974.17
2019-03-30T10:25:51.367Z,97968.89
2019-03-30T10:28:23.161Z,97965.09
2019-03-30T10:30:56.895Z,97958.84
2019-03-30T10:33:27.763Z,97957.41
2019-03-30T10:35:58.644Z,97952.05
2019-03-30T10:38:29.403Z,97947.23
2019-03-30T10:41:00.250Z,97945.52
2019-03-30T10:43:30.994Z,97944.08
2019-03-30T10:46:04.462Z,97939.41
2019-03-30T10:48:35.394Z,97937.04
2019-03-30T10:51:06.146Z,97937.51
2019-03-30T10:53:37.016Z,97941.06
2019-03-30T10:56:07.934Z,97938.29
2019-03-30T10:58:40.322Z,97940.13
2019-03-30T11:01:11.158Z,97935.23
2019-03-30T11:03:43.039Z,97932.55
2019-03-30T11:06:13.767Z,97933.89
2019-03-30T11:08:44.603Z,97924.95
2019-03-30T11:11:15.445Z,97925.74
2019-03-30T11:13:46.233Z,97920.84
2019-03-30T11:16:17.011Z,97919.50
2019-03-30T11:18:47.757Z,97915.09
2019-03-30T11:21:18.574Z,97913.75
2019-03-30T11:23:49.389Z,97912.41
2019-03-30T11:26:20.279Z,97908.76
2019-03-30T11:28:51.012Z,97905.70
2019-03-30T11:31:21.851Z,97909.26
2019-03-30T11:33:52.623Z,97899.08
2019-03-30T11:36:24.413Z,97899.45
2019-03-30T11:38:55.162Z,97886.91
2019-03-30T11:41:25.946Z,97887.84
2019-03-30T11:43:56.835Z,97881.54
2019-03-30T11:46:27.620Z,97878.85
2019-03-30T11:48:58.372Z,97875.77
2019-03-30T11:51:29.205Z,97869.92
2019-03-30T11:53:59.999Z,97868.58
2019-03-30T11:56:30.832Z,97869.92
2019-03-30T11:59:01.707Z,97863.62
2019-03-30T12:01:32.501Z,97865.52
2019-03-30T12:04:03.239Z,97861.78
2019-03-30T12:06:34.014Z,97857.25
2019-03-30T12:09:06.162Z,97856.59
2019-03-30T12:11:38.335Z,97849.42
2019-03-30T12:14:09.199Z,97847.02
2019-03-30T12:16:39.944Z,97840.08
2019-03-30T12:19:10.720Z,97830.78
2019-03-30T12:21:41.543Z,97834.16
2019-03-30T12:24:12.383Z,97828.78
2019-03-30T12:26:43.163Z,97827.94
2019-03-30T12:29:15.033Z,97829.06
2019-03-30T12:31:47.505Z,97816.89
2019-03-30T12:34:18.293Z,97815.92
2019-03-30T12:36:49.325Z,97813.17
2019-03-30T12:39:20.092Z,97807.31
2019-03-30T12:41:50.850Z,97796.85
2019-03-30T12:44:21.659Z,97794.08
2019-03-30T12:46:52.411Z,97796.29
2019-03-30T12:49:23.265Z,97795.42
2019-03-30T12:51:54.006Z,97792.33
2019-03-30T12:54:24.869Z,97793.30
2019-03-30T12:56:55.615Z,97787.15
2019-03-30T12:59:26.429Z,97786.68
2019-03-30T13:01:57.263Z,97780.34
2019-03-30T13:04:28.013Z,97773.63
2019-03-30T13:06:58.792Z,97771.72
2019-03-30T13:09:29.590Z,97765.48
2019-03-30T13:12:00.338Z,97764.80
2019-03-30T13:14:31.153Z,97767.80
2019-03-30T13:17:01.907Z,97762.98
2019-03-30T13:19:32.779Z,97752.63
2019-03-30T13:22:03.515Z,97748.13
2019-03-30T13:24:34.406Z,97754.84
2019-03-30T13:27:05.202Z,97745.91
2019-03-30T13:29:36.056Z,97747.45
2019-03-30T13:32:06.794Z,97737.96
2019-03-30T13:34:37.698Z,97734.71
2019-03-30T13:37:16.602Z,97730.78
2019-03-30T13:39:47.399Z,97728.19
2019-03-30T13:42:18.243Z,97726.84
2019-03-30T13:44:48.978Z,97725.10
2019-03-30T13:47:19.746Z,97720.14
2019-03-30T13:49:50.797Z,97716.95
2019-03-30T13:52:21.537Z,97712.09
2019-03-30T13:54:52.379Z,97717.45
2019-03-30T13:57:23.133Z,97712.09
2019-03-30T13:59:53.935Z,97711.22
2019-03-30T14:02:24.737Z,97709.88
2019-03-30T14:04:55.575Z,97706.41
2019-03-30T14:07:26.328Z,97697.48
2019-03-30T14:09:57.082Z,97702.38
2019-03-30T14:12:27.797Z,97693.86
2019-03-30T14:14:58.565Z,97692.99
2019-03-30T14:17:29.390Z,97694.33
2019-03-30T14:20:00.406Z,97693.93
2019-03-30T14:22:31.239Z,97689.91
2019-03-30T14:25:02.162Z,97677.92
2019-03-30T14:27:32.948Z,97675.14
2019-03-30T14:30:03.768Z,97678.80
2019-03-30T14:32:34.648Z,97677.55
2019-03-30T14:35:05.599Z,97676.58
2019-03-30T14:37:36.371Z,97667.66
2019-03-30T14:40:07.923Z,97669.50
2019-03-30T14:42:38.865Z,97667.75
2019-03-30T14:45:09.575Z,97661.14
2019-03-30T14:47:40.412Z,97666.98
2019-03-30T14:50:11.148Z,97656.64
2019-03-30T14:52:41.960Z,97659.39
2019-03-30T14:55:12.755Z,97658.45
2019-03-30T14:57:43.625Z,97649.06
2019-03-30T15:00:14.450Z,97650.78
2019-03-30T15:02:45.237Z,97648.09
2019-03-30T15:05:15.996Z,97647.31
2019-03-30T15:07:46.780Z,97648.29
2019-03-30T15:10:18.155Z,97642.05
2019-03-30T15:12:50.107Z,97642.05
2019-03-30T15:15:20.860Z,97642.15
2019-03-30T15:17:51.648Z,97635.44
2019-03-30T15:20:22.389Z,97632.35
2019-03-30T15:22:55.198Z,97630.07
2019-03-30T15:25:25.923Z,97628.73
2019-03-30T15:27:56.832Z,97625.27
2019-03-30T15:30:27.648Z,97626.20
2019-03-30T15:32:58.415Z,97633.42
2019-03-30T15:35:29.277Z,97628.11
2019-03-30T15:38:00.121Z,97624.09
2019-03-30T15:40:30.881Z,97622.48
2019-03-30T15:43:01.722Z,97618.55
2019-03-30T15:45:32.531Z,97622.95
2019-03-30T15:48:03.810Z,97612.31
2019-03-30T15:50:34.569Z,97618.05
2019-03-30T15:53:05.351Z,97610.19
2019-03-30T15:55:36.299Z,97602.24
2019-03-30T15:58:07.077Z,97603.65
2019-03-30T16:00:37.893Z,97601.44
2019-03-30T16:03:08.724Z,97603.24
2019-03-30T16:05:39.512Z,97604.68
2019-03-30T16:08:10.265Z,97598.91
2019-03-30T16:10:41.079Z,97604.18
2019-03-30T16:13:14.599Z,97601.69
2019-03-30T16:15:44.621Z,97604.38
2019-03-30T16:18:15.567Z,97601.85
2019-03-30T16:20:46.341Z,97599.36
2019-03-30T16:23:17.086Z,97598.49
2019-03-30T16:25:50.125Z,97598.19
2019-03-30T16:28:20.883Z,97593.39
2019-03-30T16:30:51.646Z,97599.63
2019-03-30T16:33:22.414Z,97600.97
2019-03-30T16:35:53.375Z,97596.06
2019-03-30T16:38:24.126Z,97596.57
2019-03-30T16:40:57.010Z,97594.36
2019-03-30T16:43:27.816Z,97594.45
2019-03-30T16:45:58.578Z,97595.39
2019-03-30T16:48:29.406Z,97597.60
2019-03-30T16:51:00.224Z,97598.17
2019-03-30T16:53:31.336Z,97598.07
2019-03-30T16:56:02.155Z,97597.60
2019-03-30T16:58:32.974Z,97591.36
2019-03-30T17:01:03.750Z,97594.61
2019-03-30T17:03:34.584Z,97596.83
2019-03-30T17:06:05.403Z,97592.96
2019-03-30T17:08:36.151Z,97593.83
2019-03-30T17:11:06.932Z,97590.22
2019-03-30T17:13:37.792Z,97588.94
2019-03-30T17:16:08.664Z,97593.46
2019-03-30T17:18:40.420Z,97587.70
2019-03-30T17:21:11.646Z,97589.03
2019-03-30T17:23:42.550Z,97591.72
2019-03-30T17:26:13.398Z,97594.80
2019-03-30T17:28:44.198Z,97600.63
2019-03-30T17:31:15.090Z,97597.86
2019-03-30T17:33:45.991Z,97596.14
2019-03-30T17:36:16.693Z,97597.95
2019-03-30T17:38:47.500Z,97601.51
2019-03-30T17:41:18.225Z,97600.73
2019-03-30T17:43:49.002Z,97606.47
2019-03-30T17:46:19.786Z,97606.88
2019-03-30T17:48:51.555Z,97612.14
2019-03-30T17:51:22.388Z,97608.12
2019-03-30T17:53:53.418Z,97613.95
2019-03-30T17:56:24.207Z,97614.92
2019-03-30T17:58:54.979Z,97617.31
2019-03-30T18:01:25.782Z,97624.58
2019-03-30T18:03:57.664Z,97624.02
2019-03-30T18:06:28.411Z,97627.57
2019-03-30T18:08:59.254Z,97628.91
2019-03-30T18:11:30.354Z,97631.13
2019-03-30T18:14:01.042Z,97636.08
2019-03-30T18:16:42.683Z,97638.70
2019-03-30T18:19:14.054Z,97641.76
2019-03-30T18:21:44.798Z,97647.13
2019-03-30T18:24:15.533Z,97647.53
2019-03-30T18:26:46.428Z,97652.89
2019-03-30T18:29:17.223Z,97655.64
2019-03-30T18:31:48.060Z,97654.48
2019-03-30T18:34:18.799Z,97654.48
2019-03-30T18:36:50.358Z,97651.80
2019-03-30T18:39:21.257Z,97659.28
2019-03-30T18:41:52.019Z,97658.32
2019-03-30T18:44:22.772Z,97657.85
2019-03-30T18:46:53.553Z,97655.58
2019-03-30T18:49:24.372Z,97655.08
2019-03-30T18:51:55.282Z,97655.02
2019-03-30T18:54:26.381Z,97659.97
2019-03-30T18:56:57.111Z,97665.33
2019-03-30T18:59:27.935Z,97662.50
2019-03-30T19:01:58.700Z,97661.72
2019-03-30T19:04:29.922Z,97668.33
2019-03-30T19:07:00.780Z,97663.43
2019-03-30T19:09:31.699Z,97664.77
2019-03-30T19:12:02.440Z,97668.33
2019-03-30T19:14:33.294Z,97670.05
2019-03-30T19:17:04.144Z,97675.81
2019-03-30T19:19:36.362Z,97674.06
2019-03-30T19:22:07.430Z,97674.56
2019-03-30T19:24:39.681Z,97675.91
2019-03-30T19:27:10.505Z,97673.12
2019-03-30T19:29:41.728Z,97675.72
2019-03-30T19:32:12.556Z,97673.50
2019-03-30T19:34:43.471Z,97668.64
2019-03-30T19:37:14.353Z,97667.11
2019-03-30T19:39:46.216Z,97672.47
2019-03-30T19:42:17.066Z,97677.47
2019-03-30T19:44:47.861Z,97673.03
2019-03-30T19:47:19.452Z,97674.38
2019-03-30T19:49:50.255Z,97670.76
2019-03-30T19:52:21.567Z,97667.58
2019-03-30T19:54:52.389Z,97675.63
2019-03-30T19:57:27.464Z,97676.03
2019-03-30T19:59:57.798Z,97667.88
2019-03-30T20:02:31.870Z,97674.59
2019-03-30T20:05:02.732Z,97672.69
2019-03-30T20:07:34.685Z,97672.88
2019-03-30T20:10:06.493Z,97677.68
2019-03-30T20:12:38.136Z,97670.09
2019-03-30T20:15:09.012Z,97671.44
2019-03-30T20:17:39.858Z,97669.22
2019-03-30T20:20:10.592Z,97665.11
2019-03-30T20:22:41.650Z,97663.77
2019-03-30T20:25:12.480Z,97668.09
2019-03-30T20:27:43.316Z,97662.98
2019-03-30T20:30:14.155Z,97664.73
2019-03-30T20:32:46.911Z,97673.05
2019-03-30T20:35:17.667Z,97668.75
2019-03-30T20:37:48.545Z,97677.58
2019-03-30T20:40:19.420Z,97669.03
2019-03-30T20:42:50.247Z,97664.16
2019-03-30T20:45:21.165Z,97672.68
2019-03-30T20:47:51.935Z,97665.97
2019-03-30T20:50:22.767Z,97663.76
2019-03-30T20:52:53.560Z,97660.51
2019-03-30T20:55:24.437Z,97669.13
2019-03-30T20:57:55.328Z,97668.56
2019-03-30T21:00:27.262Z,97667.69
2019-03-30T21:02:58.118Z,97668.56
2019-03-30T21:05:28.941Z,97668.86
2019-03-30T21:07:59.804Z,97668.86
2019-03-30T21:10:30.708Z,97669.43
2019-03-30T21:13:01.672Z,97672.59
2019-03-30T21:15:32.414Z,97665.61
2019-03-30T21:18:04.275Z,97666.45
2019-03-30T21:20:35.115Z,97662.67
2019-03-30T21:23:05.943Z,97662.61
2019-03-30T21:25:38.974Z,97657.24
2019-03-30T21:28:09.952Z,97661.17
2019-03-30T21:30:40.749Z,97659.42
2019-03-30T21:33:11.570Z,97661.64
2019-03-30T21:35:42.443Z,97668.34
2019-03-30T21:38:13.454Z,97654.36
2019-03-30T21:40:44.267Z,97657.45
2019-03-30T21:43:15.134Z,97657.92
2019-03-30T21:45:45.973Z,97658.70
2019-03-30T21:48:16.961Z,97650.75
2019-03-30T21:50:47.775Z,97654.77
2019-03-30T21:53:18.540Z,97653.13
2019-03-30T21:55:49.335Z,97645.84
2019-03-30T21:58:20.119Z,97650.75
2019-03-30T22:00:50.864Z,97644.10
2019-03-30T22:03:21.652Z,97646.10
2019-03-30T22:05:52.420Z,97641.73
2019-03-30T22:08:23.175Z,97641.26
2019-03-30T22:10:53.923Z,97642.03
2019-03-30T22:13:25.817Z,97637.91
2019-03-30T22:15:56.622Z,97641.84
2019-03-30T22:18:27.441Z,97629.30
2019-03-30T22:20:58.190Z,97635.33
2019-03-30T22:23:28.932Z,97629.66
2019-03-30T22:25:59.761Z,97624.28
2019-03-30T22:28:30.543Z,97625.25
2019-03-30T22:31:02.662Z,97626.59
2019-03-30T22:33:33.411Z,97619.68
2019-03-30T22:36:04.160Z,97623.36
2019-03-30T22:38:34.955Z,97622.48
2019-03-30T22:41:05.768Z,97625.58
2019-03-30T22:43:37.652Z,97627.95
2019-03-30T22:46:08.409Z,97629.13
2019-03-30T22:48:39.235Z,97628.57
2019-03-30T22:51:10.004Z,97619.28
2019-03-30T22:53:40.820Z,97616.66
2019-03-30T22:56:11.583Z,97620.62
2019-03-30T22:58:42.489Z,97616.23
2019-03-30T23:01:15.631Z,97614.23
2019-03-30T23:03:47.993Z,97615.56
2019-03-30T23:06:18.736Z,97609.08
2019-03-30T23:08:49.556Z,97607.52
2019-03-30T23:11:20.346Z,97609.79
2019-03-30T23:13:51.076Z,97611.91
2019-03-30T23:16:21.860Z,97610.61
2019-03-30T23:18:52.634Z,97606.38
2019-03-30T23:21:24.506Z,97603.20
2019-03-30T23:23:55.262Z,97606.38
2019-03-30T23:26:26.116Z,97599.48
2019-03-30T23:28:59.379Z,97603.13
2019-03-30T23:31:29.566Z,97603.13
2019-03-30T23:34:00.323Z,97603.13
2019-03-30T23:36:38.272Z,97597.98
2019-03-30T23:39:09.754Z,97595.30
2019-03-30T23:41:40.648Z,97592.30
2019-03-30T23:44:11.538Z,97587.50
2019-03-30T23:46:42.346Z,97585.19
2019-03-30T23:49:13.209Z,97580.70
2019-03-30T23:51:43.979Z,97582.45
2019-03-30T23:54:16.482Z,97573.78
2019-03-30T23:56:47.258Z,97578.94
2019-03-30T23:59:19.093Z,97577.70
